createdAt,value
2023-02-09T00:01:41.721Z,22.55
2023-02-09T00:03:44.791Z,22.70
2023-02-09T00:05:47.549Z,22.73
2023-02-09T00:07:50.262Z,19.48
2023-02-09T00:09:53.582Z,20.98
2023-02-09T00:12:13.768Z,24.88
2023-02-09T00:14:21.728Z,19.05
2023-02-09T00:16:27.751Z,24.00
2023-02-09T00:18:32.287Z,21.40
2023-02-09T00:20:35.028Z,21.92
2023-02-09T00:22:37.660Z,21.55
2023-02-09T00:24:40.546Z,22.25
2023-02-09T00:26:43.665Z,19.48
2023-02-09T00:28:46.353Z,21.25
2023-02-09T00:30:49.084Z,17.38
2023-02-09T00:32:53.190Z,21.70
2023-02-09T00:34:55.761Z,20.63
2023-02-09T00:36:58.453Z,22.88
2023-02-09T00:39:01.572Z,22.85
2023-02-09T00:41:04.910Z,21.92
2023-02-09T00:43:08.604Z,24.33
2023-02-09T00:45:11.274Z,20.40
2023-02-09T00:47:13.928Z,21.40
2023-02-09T00:49:17.960Z,21.75
2023-02-09T00:51:20.701Z,21.23
2023-02-09T00:53:23.979Z,21.92
2023-02-09T00:55:26.651Z,18.70
2023-02-09T00:57:29.326Z,20.08
2023-02-09T00:59:34.468Z,20.50
2023-02-09T01:01:38.739Z,20.80
2023-02-09T01:03:41.704Z,20.40
2023-02-09T01:05:45.752Z,20.85
2023-02-09T01:07:48.423Z,18.52
2023-02-09T01:09:51.046Z,22.20
2023-02-09T01:11:53.915Z,23.67
2023-02-09T01:13:58.074Z,21.90
2023-02-09T01:16:00.696Z,24.58
2023-02-09T01:18:03.354Z,23.63
2023-02-09T01:20:07.598Z,23.33
2023-02-09T01:22:12.357Z,24.92
2023-02-09T01:24:16.352Z,24.95
2023-02-09T01:26:19.676Z,25.55
2023-02-09T01:28:22.485Z,20.90
2023-02-09T01:30:25.302Z,22.88
2023-02-09T01:32:27.963Z,23.83
2023-02-09T01:34:30.691Z,24.20
2023-02-09T01:36:34.567Z,26.40
2023-02-09T01:38:38.607Z,22.30
2023-02-09T01:40:41.302Z,22.30
2023-02-09T01:42:43.949Z,23.17
2023-02-09T01:45:15.566Z,23.90
2023-02-09T01:47:20.351Z,24.75
2023-02-09T01:49:26.294Z,23.83
2023-02-09T01:51:29.862Z,25.75
2023-02-09T01:53:33.859Z,24.42
2023-02-09T01:55:41.793Z,22.48
2023-02-09T01:57:48.861Z,25.90
2023-02-09T01:59:55.570Z,22.45
2023-02-09T02:01:58.233Z,24.88
2023-02-09T02:04:00.908Z,24.80
2023-02-09T02:06:09.952Z,24.55
2023-02-09T02:08:20.299Z,23.70
2023-02-09T02:10:23.110Z,23.02
2023-02-09T02:12:27.275Z,18.83
2023-02-09T02:14:32.237Z,25.40
2023-02-09T02:16:49.681Z,22.23
2023-02-09T02:19:15.314Z,24.83
2023-02-09T02:21:56.802Z,25.45
2023-02-09T02:24:17.856Z,22.85
2023-02-09T02:26:45.063Z,24.83
2023-02-09T02:29:12.911Z,24.88
2023-02-09T02:31:51.376Z,24.25
2023-02-09T02:34:02.370Z,24.85
2023-02-09T02:36:10.941Z,23.80
2023-02-09T02:38:20.847Z,23.35
2023-02-09T02:40:34.035Z,21.95
2023-02-09T02:45:00.476Z,24.95
2023-02-09T02:47:09.990Z,21.35
2023-02-09T02:49:19.347Z,24.63
2023-02-09T02:51:26.471Z,25.00
2023-02-09T02:53:33.027Z,31.00
2023-02-09T02:55:39.078Z,24.80
2023-02-09T02:57:46.588Z,26.73
2023-02-09T02:59:54.632Z,31.23
2023-02-09T03:02:01.363Z,27.23
2023-02-09T03:04:08.029Z,33.13
2023-02-09T03:06:12.660Z,29.10
2023-02-09T03:08:15.572Z,25.60
2023-02-09T03:10:30.033Z,28.88
2023-02-09T03:12:42.797Z,24.30
2023-02-09T03:14:58.778Z,30.63
2023-02-09T03:20:28.256Z,26.30
2023-02-09T03:22:36.375Z,31.15
2023-02-09T03:24:46.235Z,27.52
2023-02-09T03:26:52.858Z,27.73
2023-02-09T03:28:58.711Z,31.95
2023-02-09T03:31:01.941Z,27.73
2023-02-09T03:33:06.157Z,31.38
2023-02-09T03:35:12.410Z,30.55
2023-02-09T03:37:16.589Z,25.48
2023-02-09T03:39:19.237Z,34.42
2023-02-09T03:41:22.110Z,28.33
2023-02-09T03:43:45.231Z,25.00
2023-02-09T03:45:47.895Z,28.05
2023-02-09T03:47:50.558Z,29.52
2023-02-09T03:49:53.235Z,29.23
2023-02-09T03:51:56.124Z,30.58
2023-02-09T03:54:00.061Z,29.98
2023-02-09T03:56:02.750Z,32.53
2023-02-09T03:58:05.442Z,28.67
2023-02-09T04:00:09.692Z,27.95
2023-02-09T04:02:12.378Z,25.38
2023-02-09T04:04:15.265Z,27.88
2023-02-09T04:06:17.935Z,26.08
2023-02-09T04:08:20.529Z,29.92
2023-02-09T04:10:24.437Z,27.27
2023-02-09T04:12:27.043Z,29.85
2023-02-09T04:14:29.684Z,28.95
2023-02-09T04:16:32.819Z,29.73
2023-02-09T04:18:35.584Z,29.33
2023-02-09T04:20:38.235Z,28.00
2023-02-09T04:22:40.992Z,34.50
2023-02-09T04:24:43.573Z,25.92
2023-02-09T04:26:47.586Z,29.27
2023-02-09T04:28:50.581Z,35.15
2023-02-09T04:30:54.814Z,27.75
2023-02-09T04:32:57.468Z,29.70
2023-02-09T04:35:00.091Z,31.20
2023-02-09T04:37:02.719Z,30.58
2023-02-09T04:39:05.437Z,28.05
2023-02-09T04:41:08.350Z,30.50
2023-02-09T04:43:12.468Z,30.33
2023-02-09T04:45:15.147Z,30.95
2023-02-09T04:47:17.820Z,31.45
2023-02-09T04:49:20.430Z,32.15
2023-02-09T04:51:23.061Z,30.45
2023-02-09T04:53:26.755Z,29.50
2023-02-09T04:55:29.431Z,29.50
2023-02-09T04:57:46.366Z,25.10
2023-02-09T04:59:50.303Z,33.22
2023-02-09T05:01:53.018Z,39.53
2023-02-09T05:03:55.743Z,36.55
2023-02-09T05:06:00.329Z,33.92
2023-02-09T05:08:02.901Z,31.23
2023-02-09T05:10:06.328Z,36.65
2023-02-09T05:12:10.090Z,34.13
2023-02-09T05:14:12.822Z,27.55
2023-02-09T05:16:18.412Z,36.35
2023-02-09T05:18:22.597Z,29.85
2023-02-09T05:20:25.253Z,29.48
2023-02-09T05:22:28.266Z,27.55
2023-02-09T05:24:31.025Z,29.55
2023-02-09T05:26:33.619Z,30.52
2023-02-09T05:28:36.297Z,30.35
2023-02-09T05:30:38.912Z,34.50
2023-02-09T05:32:42.925Z,32.83
2023-02-09T05:34:45.573Z,33.17
2023-02-09T05:36:48.703Z,31.45
2023-02-09T05:38:51.387Z,31.88
2023-02-09T05:40:54.080Z,34.28
2023-02-09T05:42:55.757Z,31.48
2023-02-09T05:44:58.453Z,30.65
2023-02-09T05:47:01.097Z,28.63
2023-02-09T05:49:05.064Z,30.58
2023-02-09T05:51:07.930Z,30.98
2023-02-09T05:53:10.779Z,35.47
2023-02-09T05:55:13.372Z,36.25
2023-02-09T05:57:16.063Z,27.98
2023-02-09T05:59:19.177Z,32.92
2023-02-09T06:01:22.139Z,31.10
2023-02-09T06:03:24.815Z,29.40
2023-02-09T06:05:30.009Z,31.35
2023-02-09T06:07:32.724Z,31.55
2023-02-09T06:09:35.368Z,41.65
2023-02-09T06:11:38.238Z,36.95
2023-02-09T06:13:40.949Z,28.10
2023-02-09T06:15:43.631Z,30.67
2023-02-09T06:17:46.408Z,30.48
2023-02-09T06:19:49.028Z,34.88
2023-02-09T06:21:53.046Z,29.80
2023-02-09T06:23:55.722Z,31.77
2023-02-09T06:25:58.402Z,32.65
2023-02-09T06:28:02.374Z,32.03
2023-02-09T06:30:05.950Z,28.30
2023-02-09T06:32:08.718Z,27.80
2023-02-09T06:34:11.513Z,30.95
2023-02-09T06:36:14.164Z,30.60
2023-02-09T06:38:18.192Z,31.58
2023-02-09T06:40:21.051Z,31.95
2023-02-09T06:42:23.900Z,32.13
2023-02-09T06:44:26.512Z,34.13
2023-02-09T06:46:29.562Z,34.83
2023-02-09T06:48:32.247Z,34.72
2023-02-09T06:50:35.449Z,32.38
2023-02-09T06:52:38.354Z,33.85
2023-02-09T06:54:43.881Z,36.67
2023-02-09T06:56:47.827Z,37.55
2023-02-09T06:58:50.448Z,38.80
2023-02-09T07:00:53.164Z,31.30
2023-02-09T07:02:55.996Z,33.40
2023-02-09T07:04:58.748Z,32.38
2023-02-09T07:07:01.328Z,31.67
2023-02-09T07:09:03.981Z,33.50
2023-02-09T07:11:10.264Z,35.40
2023-02-09T07:13:12.872Z,23.98
2023-02-09T07:15:15.920Z,30.02
2023-02-09T07:17:18.576Z,29.77
2023-02-09T07:19:21.205Z,31.30
2023-02-09T07:21:23.932Z,30.88
2023-02-09T07:23:27.039Z,31.20
2023-02-09T07:25:29.644Z,33.05
2023-02-09T07:27:33.625Z,30.85
2023-02-09T07:29:36.291Z,37.08
2023-02-09T07:31:38.982Z,29.38
2023-02-09T07:33:41.873Z,32.13
2023-02-09T07:35:44.434Z,29.40
2023-02-09T07:37:47.034Z,31.60
2023-02-09T07:39:49.889Z,36.30
2023-02-09T07:41:52.632Z,30.63
2023-02-09T07:43:56.932Z,29.70
2023-02-09T07:46:03.792Z,35.83
2023-02-09T07:48:06.428Z,23.42
2023-02-09T07:50:09.600Z,37.00
2023-02-09T07:52:12.726Z,34.97
2023-02-09T07:54:16.019Z,33.03
2023-02-09T07:56:19.103Z,33.97
2023-02-09T07:58:22.187Z,28.10
2023-02-09T08:00:26.526Z,32.20
2023-02-09T08:02:35.050Z,29.70
2023-02-09T08:04:37.848Z,30.15
2023-02-09T08:06:44.991Z,33.55
2023-02-09T08:10:51.290Z,25.48
2023-02-09T08:13:03.775Z,32.25
2023-02-09T08:15:07.325Z,34.67
2023-02-09T08:17:25.844Z,32.97
2023-02-09T08:19:29.594Z,29.48
2023-02-09T08:21:36.895Z,37.35
2023-02-09T08:23:44.873Z,24.48
2023-02-09T08:25:51.319Z,26.23
2023-02-09T08:27:54.790Z,19.45
2023-02-09T08:29:59.047Z,27.50
2023-02-09T08:32:01.762Z,31.63
2023-02-09T08:34:05.754Z,24.33
2023-02-09T08:36:08.864Z,29.27
2023-02-09T08:38:11.549Z,26.55
2023-02-09T08:40:15.695Z,30.55
2023-02-09T08:42:18.464Z,30.83
2023-02-09T08:44:21.112Z,28.48
2023-02-09T08:46:23.861Z,33.50
2023-02-09T08:48:26.608Z,42.65
2023-02-09T08:50:30.610Z,29.90
2023-02-09T08:52:33.237Z,31.75
2023-02-09T08:54:36.174Z,33.75
2023-02-09T08:56:39.163Z,32.10
2023-02-09T08:58:41.830Z,25.60
2023-02-09T09:00:44.705Z,31.40
2023-02-09T09:02:47.417Z,29.92
2023-02-09T09:04:50.310Z,30.02
2023-02-09T09:06:55.440Z,36.05
2023-02-09T09:08:58.244Z,29.73
2023-02-09T09:11:01.348Z,26.73
2023-02-09T09:13:04.223Z,28.55
2023-02-09T09:15:07.457Z,32.83
2023-02-09T09:17:10.574Z,31.92
2023-02-09T09:19:13.574Z,35.13
2023-02-09T09:21:18.775Z,36.05
2023-02-09T09:23:23.397Z,30.15
2023-02-09T09:25:26.522Z,30.67
2023-02-09T09:27:29.429Z,29.85
2023-02-09T09:29:34.138Z,30.27
2023-02-09T09:31:38.020Z,27.52
2023-02-09T09:33:41.764Z,33.45
2023-02-09T09:35:44.824Z,30.17
2023-02-09T09:37:47.602Z,32.10
2023-02-09T09:39:52.547Z,29.52
2023-02-09T09:41:59.665Z,26.63
2023-02-09T09:44:04.114Z,31.15
2023-02-09T09:46:08.841Z,28.58
2023-02-09T09:48:23.059Z,31.50
2023-02-09T09:50:28.447Z,30.55
2023-02-09T09:52:33.589Z,34.42
2023-02-09T09:54:38.070Z,30.27
2023-02-09T09:56:42.134Z,28.38
2023-02-09T09:58:45.717Z,34.20
2023-02-09T10:00:49.897Z,31.88
2023-02-09T10:02:53.376Z,28.45
2023-02-09T10:05:00.447Z,30.35
2023-02-09T10:07:15.408Z,30.27
2023-02-09T10:09:29.360Z,33.25
2023-02-09T10:11:39.441Z,32.00
2023-02-09T10:13:48.916Z,30.27
2023-02-09T10:15:53.131Z,34.33
2023-02-09T10:17:56.453Z,35.53
2023-02-09T10:20:03.750Z,31.65
2023-02-09T10:22:13.011Z,33.13
2023-02-09T10:24:21.569Z,37.15
2023-02-09T10:26:26.824Z,30.60
2023-02-09T10:28:32.056Z,33.47
2023-02-09T10:30:36.151Z,33.03
2023-02-09T10:32:44.198Z,30.73
2023-02-09T10:34:49.578Z,31.65
2023-02-09T10:36:54.676Z,32.08
2023-02-09T10:39:16.500Z,32.95
2023-02-09T10:41:20.066Z,28.05
2023-02-09T10:43:26.993Z,33.38
2023-02-09T10:47:37.071Z,28.88
2023-02-09T10:49:40.870Z,33.50
2023-02-09T10:51:43.559Z,33.90
2023-02-09T10:54:01.390Z,33.60
2023-02-09T10:56:07.174Z,37.85
2023-02-09T10:58:22.625Z,31.98
2023-02-09T11:00:32.964Z,35.22
2023-02-09T11:02:41.136Z,36.13
2023-02-09T11:04:44.906Z,34.63
2023-02-09T11:06:52.001Z,36.40
2023-02-09T11:09:00.732Z,32.72
2023-02-09T11:11:06.821Z,31.75
2023-02-09T11:13:20.963Z,40.25
2023-02-09T11:15:27.986Z,35.05
2023-02-09T11:17:36.687Z,34.35
2023-02-09T11:20:09.812Z,34.58
2023-02-09T11:22:14.158Z,32.05
2023-02-09T11:24:26.337Z,33.35
2023-02-09T11:26:39.074Z,37.20
2023-02-09T11:28:49.315Z,31.73
2023-02-09T11:31:06.382Z,31.40
2023-02-09T11:33:16.563Z,33.50
2023-02-09T11:35:23.216Z,30.65
2023-02-09T11:37:36.081Z,33.58
2023-02-09T11:42:09.606Z,30.08
2023-02-09T11:44:19.192Z,32.00
2023-02-09T11:46:25.400Z,27.77
2023-02-09T11:48:31.389Z,31.48
2023-02-09T11:50:41.978Z,34.28
2023-02-09T11:52:52.267Z,34.75
2023-02-09T11:55:01.338Z,28.23
2023-02-09T11:57:16.221Z,28.23
2023-02-09T11:59:28.302Z,25.25
2023-02-09T12:01:42.165Z,26.52
2023-02-09T12:03:54.724Z,25.85
2023-02-09T12:05:58.767Z,28.15
2023-02-09T12:08:18.764Z,29.70
2023-02-09T12:10:30.810Z,28.40
2023-02-09T12:12:41.464Z,30.75
2023-02-09T12:15:01.579Z,32.75
2023-02-09T12:17:12.747Z,28.63
2023-02-09T12:19:26.986Z,27.77
2023-02-09T12:21:33.833Z,26.63
2023-02-09T12:23:37.807Z,28.40
2023-02-09T12:25:55.268Z,25.58
2023-02-09T12:28:37.730Z,29.20
2023-02-09T12:31:01.253Z,29.83
2023-02-09T12:33:17.445Z,28.33
2023-02-09T12:35:29.268Z,29.08
2023-02-09T12:37:33.253Z,26.23
2023-02-09T12:39:36.103Z,25.85
2023-02-09T12:42:15.386Z,27.65
2023-02-09T12:44:38.627Z,23.95
2023-02-09T12:46:51.765Z,29.25
2023-02-09T12:49:09.842Z,23.20
2023-02-09T12:51:40.117Z,22.50
2023-02-09T12:53:48.951Z,28.60
2023-02-09T12:56:03.804Z,32.40
2023-02-09T12:58:40.573Z,27.80
2023-02-09T13:00:54.731Z,26.70
2023-02-09T13:02:57.636Z,25.90
2023-02-09T13:05:04.791Z,23.73
2023-02-09T13:07:15.125Z,29.05
2023-02-09T13:09:27.280Z,26.05
2023-02-09T13:11:38.701Z,26.50
2023-02-09T13:13:48.940Z,24.85
2023-02-09T13:16:09.069Z,22.95
2023-02-09T13:18:20.968Z,26.40
2023-02-09T13:20:37.213Z,25.20
2023-02-09T13:23:01.659Z,30.02
2023-02-09T13:25:18.541Z,28.80
2023-02-09T13:27:23.292Z,26.83
2023-02-09T13:29:28.515Z,27.23
2023-02-09T13:31:36.408Z,25.38
2023-02-09T13:33:50.218Z,25.35
2023-02-09T13:36:08.936Z,22.98
2023-02-09T13:38:17.644Z,26.95
2023-02-09T13:40:25.384Z,25.52
2023-02-09T13:42:30.174Z,27.25
2023-02-09T13:44:35.302Z,25.95
2023-02-09T13:46:39.391Z,30.77
2023-02-09T13:48:42.120Z,26.55
2023-02-09T13:50:48.559Z,25.13
2023-02-09T13:52:51.843Z,27.67
2023-02-09T13:54:55.299Z,23.88
2023-02-09T13:57:01.719Z,27.48
2023-02-09T13:59:05.304Z,25.70
2023-02-09T14:01:14.156Z,26.52
2023-02-09T14:03:21.184Z,24.33
2023-02-09T14:05:33.160Z,26.17
2023-02-09T14:07:38.033Z,25.02
2023-02-09T14:09:46.771Z,26.35
2023-02-09T14:11:53.539Z,26.25
2023-02-09T14:14:02.496Z,30.92
2023-02-09T14:16:07.179Z,28.55
2023-02-09T14:18:29.421Z,25.25
2023-02-09T14:20:32.143Z,26.40
2023-02-09T14:22:36.445Z,27.90
2023-02-09T14:24:44.536Z,27.55
2023-02-09T14:26:50.953Z,29.77
2023-02-09T14:29:06.820Z,25.75
2023-02-09T14:31:19.693Z,28.45
2023-02-09T14:33:25.382Z,26.52
2023-02-09T14:35:29.951Z,30.48
2023-02-09T14:37:32.577Z,24.98
2023-02-09T14:39:35.201Z,27.20
2023-02-09T14:41:38.089Z,29.70
2023-02-09T14:43:40.923Z,25.08
2023-02-09T14:45:47.673Z,30.48
2023-02-09T14:47:50.826Z,30.25
2023-02-09T14:49:53.468Z,26.50
2023-02-09T14:52:04.362Z,26.35
2023-02-09T14:54:19.333Z,29.33
2023-02-09T14:56:28.291Z,28.58
2023-02-09T14:58:33.250Z,32.42
2023-02-09T15:00:35.921Z,28.90
2023-02-09T15:02:40.028Z,26.48
2023-02-09T15:04:42.703Z,32.53
2023-02-09T15:06:48.224Z,28.38
2023-02-09T15:08:51.017Z,31.58
2023-02-09T15:10:56.236Z,27.58
2023-02-09T15:12:59.513Z,25.65
2023-02-09T15:15:03.275Z,29.30
2023-02-09T15:17:14.851Z,27.48
2023-02-09T15:19:22.186Z,25.70
2023-02-09T15:21:25.054Z,30.70
2023-02-09T15:23:27.867Z,30.63
2023-02-09T15:25:30.808Z,26.90
2023-02-09T15:27:35.274Z,31.05
2023-02-09T15:29:38.011Z,32.85
2023-02-09T15:31:41.171Z,31.00
2023-02-09T15:33:44.077Z,28.50
2023-02-09T15:35:49.045Z,31.35
2023-02-09T15:37:55.085Z,29.00
2023-02-09T15:40:02.662Z,30.65
2023-02-09T15:42:31.322Z,32.30
2023-02-09T15:44:51.600Z,35.40
2023-02-09T15:47:12.013Z,32.50
2023-02-09T15:49:14.670Z,34.50
2023-02-09T15:51:18.746Z,28.90
2023-02-09T15:53:22.024Z,35.05
2023-02-09T15:55:26.370Z,32.65
2023-02-09T15:57:29.222Z,31.60
2023-02-09T15:59:31.900Z,33.47
2023-02-09T16:01:35.287Z,33.40
2023-02-09T16:03:38.027Z,38.25
2023-02-09T16:05:40.684Z,33.53
2023-02-09T16:07:45.047Z,32.25
2023-02-09T16:09:47.748Z,34.67
2023-02-09T16:11:50.570Z,35.95
2023-02-09T16:13:53.613Z,35.05
2023-02-09T16:16:05.133Z,31.70
2023-02-09T16:18:14.587Z,34.53
2023-02-09T16:20:17.958Z,34.33
2023-02-09T16:22:23.416Z,28.33
2023-02-09T16:24:32.396Z,31.90
2023-02-09T16:26:35.745Z,34.15
2023-02-09T16:28:38.465Z,32.75
2023-02-09T16:30:50.549Z,34.05
2023-02-09T16:32:53.488Z,32.97
2023-02-09T16:35:04.496Z,29.58
2023-02-09T16:37:16.213Z,31.73
2023-02-09T16:39:20.829Z,32.72
2023-02-09T16:41:42.356Z,33.10
2023-02-09T16:43:45.264Z,35.05
2023-02-09T16:46:02.434Z,33.15
2023-02-09T16:48:06.382Z,36.50
2023-02-09T16:50:22.585Z,36.85
2023-02-09T16:52:26.047Z,31.67
2023-02-09T16:54:30.048Z,30.70
2023-02-09T16:56:35.918Z,30.23
2023-02-09T16:58:40.185Z,30.45
2023-02-09T17:00:45.292Z,32.28
2023-02-09T17:02:52.651Z,35.50
2023-02-09T17:04:55.426Z,33.30
2023-02-09T17:06:58.067Z,31.27
2023-02-09T17:09:00.842Z,38.58
2023-02-09T17:11:05.687Z,31.85
2023-02-09T17:13:10.842Z,33.20
2023-02-09T17:15:28.965Z,29.17
2023-02-09T17:17:32.585Z,35.50
2023-02-09T17:19:46.922Z,28.00
2023-02-09T17:21:50.344Z,31.13
2023-02-09T17:23:53.619Z,28.85
2023-02-09T17:25:56.395Z,31.65
2023-02-09T17:27:59.237Z,25.73
2023-02-09T17:30:04.023Z,27.50
2023-02-09T17:32:06.977Z,29.35
2023-02-09T17:34:14.125Z,27.63
2023-02-09T17:36:32.733Z,27.02
2023-02-09T17:38:37.236Z,27.75
2023-02-09T17:40:39.976Z,27.55
2023-02-09T17:42:43.088Z,27.25
2023-02-09T17:44:46.864Z,27.23
2023-02-09T17:46:51.140Z,26.80
2023-02-09T17:48:53.823Z,28.85
2023-02-09T17:51:00.164Z,26.73
2023-02-09T17:53:02.804Z,28.30
2023-02-09T17:55:05.862Z,29.70
2023-02-09T17:57:10.110Z,26.45
2023-02-09T17:59:13.429Z,25.35
2023-02-09T18:01:26.404Z,28.17
2023-02-09T18:03:30.753Z,22.95
2023-02-09T18:05:35.912Z,30.58
2023-02-09T18:07:38.680Z,29.10
2023-02-09T18:09:41.303Z,25.05
2023-02-09T18:12:02.023Z,25.52
2023-02-09T18:14:04.843Z,27.58
2023-02-09T18:16:07.843Z,28.95
2023-02-09T18:18:10.609Z,27.70
2023-02-09T18:20:18.789Z,30.05
2023-02-09T18:22:21.412Z,27.30
2023-02-09T18:24:26.997Z,29.55
2023-02-09T18:26:29.667Z,29.02
2023-02-09T18:28:32.490Z,26.20
2023-02-09T18:30:37.212Z,31.50
2023-02-09T18:32:39.855Z,31.20
2023-02-09T18:34:42.546Z,28.08
2023-02-09T18:36:46.516Z,31.08
2023-02-09T18:38:50.936Z,28.90
2023-02-09T18:40:53.604Z,31.77
2023-02-09T18:42:56.422Z,27.42
2023-02-09T18:44:59.117Z,25.73
2023-02-09T18:47:01.925Z,29.35
2023-02-09T18:49:05.018Z,28.55
2023-02-09T18:51:08.062Z,31.38
2023-02-09T18:53:12.955Z,28.65
2023-02-09T18:55:15.899Z,41.75
2023-02-09T18:57:18.756Z,29.88
2023-02-09T18:59:21.449Z,26.75
2023-02-09T19:01:25.204Z,36.55
2023-02-09T19:03:27.884Z,30.80
2023-02-09T19:05:32.933Z,31.90
2023-02-09T19:07:36.734Z,33.22
2023-02-09T19:09:42.874Z,40.60
2023-02-09T19:11:45.540Z,31.08
2023-02-09T19:14:08.718Z,37.38
2023-02-09T19:16:12.734Z,31.65
2023-02-09T19:18:15.469Z,35.63
2023-02-09T19:20:20.458Z,39.92
2023-02-09T19:22:23.542Z,33.38
2023-02-09T19:24:26.206Z,42.05
2023-02-09T19:26:30.173Z,35.80
2023-02-09T19:28:35.114Z,29.88
2023-02-09T19:30:37.954Z,32.50
2023-02-09T19:32:40.627Z,31.50
2023-02-09T19:34:45.833Z,32.28
2023-02-09T19:36:48.778Z,30.27
2023-02-09T19:38:51.477Z,37.38
2023-02-09T19:41:09.738Z,39.72
2023-02-09T19:43:14.676Z,36.78
2023-02-09T19:45:17.424Z,41.30
2023-02-09T19:47:25.530Z,38.00
2023-02-09T19:49:29.218Z,35.45
2023-02-09T19:51:32.212Z,36.33
2023-02-09T19:53:35.166Z,36.95
2023-02-09T19:55:37.830Z,38.97
2023-02-09T19:57:42.371Z,36.70
2023-02-09T19:59:46.532Z,34.42
2023-02-09T20:01:49.693Z,34.35
2023-02-09T20:03:52.437Z,36.88
2023-02-09T20:05:55.517Z,40.70
2023-02-09T20:07:58.431Z,34.88
2023-02-09T20:10:01.109Z,36.25
2023-02-09T20:12:03.908Z,37.22
2023-02-09T20:14:06.761Z,35.47
2023-02-09T20:16:12.794Z,33.22
2023-02-09T20:18:17.609Z,38.05
2023-02-09T20:20:21.008Z,38.03
2023-02-09T20:22:23.791Z,35.47
2023-02-09T20:24:26.599Z,35.42
2023-02-09T20:26:33.001Z,39.90
2023-02-09T20:28:35.671Z,39.38
2023-02-09T20:30:41.543Z,33.42
2023-02-09T20:32:45.580Z,31.75
2023-02-09T20:34:48.221Z,36.85
2023-02-09T20:36:50.875Z,30.65
2023-02-09T20:38:53.944Z,32.47
2023-02-09T20:40:56.709Z,29.42
2023-02-09T20:43:16.807Z,31.88
2023-02-09T20:45:37.171Z,32.58
2023-02-09T20:47:39.852Z,29.50
2023-02-09T20:49:44.208Z,35.42
2023-02-09T20:51:47.091Z,32.13
2023-02-09T20:53:49.670Z,32.97
2023-02-09T20:55:52.373Z,37.75
2023-02-09T20:57:54.976Z,31.63
2023-02-09T20:59:58.408Z,32.95
2023-02-09T21:02:01.109Z,35.05
2023-02-09T21:04:05.094Z,30.33
2023-02-09T21:06:10.102Z,32.28
2023-02-09T21:08:12.771Z,33.05
2023-02-09T21:10:16.014Z,31.55
2023-02-09T21:12:18.912Z,41.05
2023-02-09T21:14:27.872Z,29.63
2023-02-09T21:16:36.516Z,30.02
2023-02-09T21:18:40.206Z,33.55
2023-02-09T21:20:42.996Z,36.75
2023-02-09T21:22:46.984Z,25.98
2023-02-09T21:24:49.684Z,24.75
2023-02-09T21:26:52.732Z,31.63
2023-02-09T21:28:56.488Z,30.65
2023-02-09T21:30:59.569Z,34.10
2023-02-09T21:33:02.568Z,39.25
2023-02-09T21:35:10.053Z,31.20
2023-02-09T21:37:14.058Z,36.00
2023-02-09T21:39:18.230Z,32.63
2023-02-09T21:41:40.400Z,31.45
2023-02-09T21:43:43.381Z,34.05
2023-02-09T21:45:46.132Z,31.95
2023-02-09T21:47:48.855Z,33.45
2023-02-09T21:49:51.700Z,34.67
2023-02-09T21:51:54.411Z,39.60
2023-02-09T21:53:57.776Z,38.17
2023-02-09T21:56:01.859Z,34.53
2023-02-09T21:58:04.671Z,33.60
2023-02-09T22:00:09.732Z,35.20
2023-02-09T22:02:14.217Z,33.00
2023-02-09T22:04:17.041Z,37.33
2023-02-09T22:06:19.893Z,34.95
2023-02-09T22:08:22.591Z,38.15
2023-02-09T22:10:25.234Z,37.58
2023-02-09T22:12:29.993Z,34.70
2023-02-09T22:14:32.871Z,34.00
2023-02-09T22:16:35.589Z,37.65
2023-02-09T22:18:38.457Z,36.83
2023-02-09T22:20:41.483Z,35.60
2023-02-09T22:22:46.001Z,39.03
2023-02-09T22:24:48.793Z,34.13
2023-02-09T22:26:51.605Z,32.50
2023-02-09T22:28:55.607Z,38.03
2023-02-09T22:30:58.541Z,34.60
2023-02-09T22:33:02.000Z,40.25
2023-02-09T22:35:04.704Z,34.20
2023-02-09T22:37:07.595Z,34.17
2023-02-09T22:39:10.394Z,36.83
2023-02-09T22:41:21.429Z,37.20
2023-02-09T22:43:24.301Z,34.70
2023-02-09T22:45:28.442Z,39.22
2023-02-09T22:47:31.162Z,38.72
2023-02-09T22:49:34.095Z,33.38
2023-02-09T22:51:37.606Z,40.55
2023-02-09T22:53:40.333Z,37.47
2023-02-09T22:55:46.340Z,37.63
2023-02-09T22:57:49.180Z,35.72
2023-02-09T22:59:52.192Z,33.50
2023-02-09T23:01:56.320Z,40.83
2023-02-09T23:03:59.699Z,38.50
2023-02-09T23:06:03.455Z,41.53
2023-02-09T23:08:08.692Z,38.70
2023-02-09T23:10:11.340Z,40.67
2023-02-09T23:12:14.182Z,38.97
2023-02-09T23:14:16.860Z,37.63
2023-02-09T23:16:21.589Z,33.70
2023-02-09T23:18:25.721Z,35.88
2023-02-09T23:20:28.494Z,33.45
2023-02-09T23:22:31.809Z,40.17
2023-02-09T23:24:34.546Z,33.30
2023-02-09T23:26:38.177Z,44.95
2023-02-09T23:28:40.966Z,36.50
2023-02-09T23:30:45.030Z,37.55
2023-02-09T23:32:49.233Z,36.10
2023-02-09T23:34:53.360Z,40.22
2023-02-09T23:36:57.377Z,34.70
2023-02-09T23:39:04.953Z,36.33
2023-02-09T23:41:08.495Z,36.72
2023-02-09T23:43:11.213Z,40.63
2023-02-09T23:45:14.002Z,35.20
2023-02-09T23:47:16.696Z,38.53
2023-02-09T23:49:19.457Z,38.35
2023-02-09T23:51:26.554Z,39.58
2023-02-09T23:55:32.256Z,31.55
2023-02-09T23:57:34.890Z,33.33
2023-02-09T23:59:37.498Z,36.33
